Time;durP1;ratioP1;P1;durP2;ratioP2;P2;SDS_P1;SDS_P2;PMS_P1;PMS_P2;Temp;Humidity;BMP_temperature;BMP_pressure;BME280_temperature;BME280_humidity;BME280_pressure;Samples;Min_cycle;Max_cycle;Signal;HPM_P1;HPM_P2
2023/10/13 00:00:36;;;;;;;1.90;1.60;;;20.90;63.30;20.10;96636.00;;;;5111267;28;20208;-83
2023/10/13 00:03:05;;;;;;;2.43;1.97;;;20.90;63.40;20.00;96635.00;;;;5092080;28;20286;-82
2023/10/13 00:05:35;;;;;;;4.13;2.20;;;20.80;63.30;20.00;96636.00;;;;5113589;27;20214;-82
2023/10/13 00:08:04;;;;;;;2.77;2.30;;;20.80;63.40;20.00;96638.00;;;;5108464;28;20192;-82
2023/10/13 00:10:33;;;;;;;2.40;1.83;;;20.80;63.50;20.00;96637.00;;;;5107690;28;20276;-82
2023/10/13 00:13:11;;;;;;;2.20;1.83;;;20.80;63.60;20.00;96641.00;;;;5107503;28;20652;-82
2023/10/13 00:15:46;;;;;;;2.10;1.83;;;20.80;63.60;20.00;96638.00;;;;5113928;28;20241;-82
2023/10/13 00:18:13;;;;;;;2.47;1.97;;;20.80;63.50;20.00;96632.00;;;;5113135;28;20225;-83
2023/10/13 00:20:49;;;;;;;3.50;2.10;;;20.80;63.50;19.90;96635.00;;;;5109719;28;20195;-82
2023/10/13 00:23:20;;;;;;;5.77;2.40;;;20.80;63.50;19.90;96640.00;;;;5107396;28;20234;-82
2023/10/13 00:25:56;;;;;;;3.97;2.47;;;20.80;63.50;19.90;96631.00;;;;5113055;28;20218;-82
2023/10/13 00:28:26;;;;;;;2.57;2.37;;;20.70;63.50;19.90;96634.00;;;;5103424;28;20188;-82
2023/10/13 00:31:04;;;;;;;1.80;1.63;;;20.70;63.40;19.80;96631.00;;;;5111874;28;20225;-82
2023/10/13 00:33:32;;;;;;;2.37;1.67;;;20.70;63.50;19.80;96630.00;;;;5107293;28;20194;-82
2023/10/13 00:36:01;;;;;;;2.80;2.47;;;20.60;64.10;19.80;96624.00;;;;5111625;28;20211;-82
2023/10/13 00:38:28;;;;;;;2.63;1.70;;;20.60;63.40;19.80;96625.00;;;;5110800;28;20191;-82
2023/10/13 00:40:55;;;;;;;3.63;1.77;;;20.60;63.30;19.70;96625.00;;;;5097975;28;20222;-83
2023/10/13 00:43:32;;;;;;;2.87;1.97;;;20.60;63.30;19.70;96622.00;;;;5100585;28;20244;-83
2023/10/13 00:46:07;;;;;;;2.20;1.80;;;20.50;63.20;19.60;96634.00;;;;5108683;28;20219;-84
2023/10/13 00:48:43;;;;;;;2.30;2.00;;;20.50;63.20;19.60;96624.00;;;;5112272;28;20283;-84
2023/10/13 00:51:32;;;;;;;1.90;1.80;;;20.40;63.20;19.50;96625.00;;;;5113903;28;20210;-83
2023/10/13 00:54:02;;;;;;;2.90;1.97;;;20.40;63.30;19.50;96613.00;;;;5111577;28;20235;-82
2023/10/13 00:56:30;;;;;;;2.23;1.60;;;20.40;63.30;19.40;96620.00;;;;5117208;28;20225;-82
2023/10/13 00:59:02;;;;;;;5.00;2.00;;;20.30;63.40;19.40;96619.00;;;;5098464;28;20195;-83
2023/10/13 01:01:29;;;;;;;2.53;2.07;;;20.30;63.50;19.40;96618.00;;;;5118044;28;20714;-83
2023/10/13 01:03:59;;;;;;;2.97;1.77;;;20.20;63.50;19.30;96622.00;;;;5111992;28;20223;-83
2023/10/13 01:06:28;;;;;;;1.50;1.40;;;20.20;63.60;19.30;96615.00;;;;5119227;28;20215;-82
2023/10/13 01:09:11;;;;;;;2.80;1.90;;;20.10;63.70;19.20;96626.00;;;;5103138;28;20225;-82
2023/10/13 01:11:38;;;;;;;2.37;2.00;;;20.10;63.70;19.20;96620.00;;;;5114363;28;20191;-82
2023/10/13 01:14:06;;;;;;;1.83;1.67;;;20.10;63.60;19.10;96616.00;;;;5116077;28;20280;-82
2023/10/13 01:16:32;;;;;;;2.30;1.77;;;20.00;63.60;19.10;96618.00;;;;5100016;28;20214;-82
2023/10/13 01:19:04;;;;;;;3.23;2.33;;;20.00;63.60;19.00;96612.00;;;;5112953;28;20191;-82
2023/10/13 01:21:33;;;;;;;1.50;1.40;;;20.00;63.70;19.00;96616.00;;;;5115268;28;20226;-82
2023/10/13 01:24:07;;;;;;;2.67;1.60;;;19.90;63.70;18.90;96615.00;;;;5096098;28;20220;-82
2023/10/13 01:26:38;;;;;;;2.63;1.73;;;19.80;63.80;18.90;96611.00;;;;5117767;28;20690;-82
2023/10/13 01:29:14;;;;;;;3.17;1.97;;;19.80;63.70;18.80;96599.00;;;;5114656;28;20204;-82
2023/10/13 01:31:45;;;;;;;2.53;1.70;;;19.80;63.80;18.80;96602.00;;;;5112727;28;20194;-81
2023/10/13 01:34:19;;;;;;;2.80;1.87;;;19.70;63.80;18.70;96595.00;;;;5103585;28;20732;-81
2023/10/13 01:36:45;;;;;;;1.70;1.60;;;19.70;63.90;18.70;96601.00;;;;5105646;28;20226;-82
2023/10/13 01:39:16;;;;;;;3.13;1.60;;;19.70;64.00;18.70;96601.00;;;;5099433;28;20853;-81
2023/10/13 01:41:43;;;;;;;1.67;1.50;;;19.60;64.10;18.60;96599.00;;;;5107575;28;20620;-81
2023/10/13 01:44:12;;;;;;;3.07;1.63;;;19.60;64.10;18.60;96600.00;;;;5105636;28;20708;-82
2023/10/13 01:46:39;;;;;;;2.83;1.90;;;19.60;64.20;18.60;96600.00;;;;5107925;28;20217;-82
2023/10/13 01:49:07;;;;;;;2.60;1.90;;;19.50;64.20;18.50;96602.00;;;;5104233;28;20195;-82
2023/10/13 01:51:33;;;;;;;1.67;1.57;;;19.50;64.20;18.50;96610.00;;;;5106488;28;20202;-82
2023/10/13 01:54:03;;;;;;;1.70;1.60;;;19.40;64.20;18.50;96595.00;;;;5107035;28;20253;-82
2023/10/13 01:56:31;;;;;;;2.50;2.10;;;19.40;64.20;18.50;96612.00;;;;5110509;28;20210;-82
2023/10/13 01:58:58;;;;;;;1.97;1.77;;;19.40;64.20;18.40;96602.00;;;;5103210;28;20206;-82
2023/10/13 02:01:33;;;;;;;2.60;1.87;;;19.40;64.10;18.40;96608.00;;;;5111636;28;20205;-81
2023/10/13 02:04:03;;;;;;;2.77;1.83;;;19.40;64.10;18.40;96602.00;;;;5106891;28;20221;-82
2023/10/13 02:06:33;;;;;;;1.93;1.70;;;19.30;64.10;18.30;96606.00;;;;5111510;28;20572;-82
2023/10/13 02:09:10;;;;;;;1.70;1.60;;;19.30;64.10;18.30;96608.00;;;;5105978;28;20256;-81
2023/10/13 02:11:38;;;;;;;3.60;1.70;;;19.20;64.10;18.20;96605.00;;;;5105288;28;20194;-81
2023/10/13 02:14:11;;;;;;;2.97;1.97;;;19.20;64.10;18.20;96599.00;;;;5102435;28;20195;-81
2023/10/13 02:16:37;;;;;;;1.80;1.43;;;19.20;64.90;18.20;96595.00;;;;5108906;27;20690;-81
2023/10/13 02:19:05;;;;;;;3.30;1.80;;;19.10;64.20;18.10;96600.00;;;;5106119;28;20556;-81
2023/10/13 02:21:32;;;;;;;2.83;1.73;;;19.10;64.30;18.10;96601.00;;;;5106423;28;20188;-82
2023/10/13 02:24:03;;;;;;;2.77;1.60;;;19.10;64.40;18.10;96597.00;;;;5101130;28;20694;-81
2023/10/13 02:26:31;;;;;;;2.13;1.40;;;19.00;64.40;18.00;96602.00;;;;5102594;28;20703;-82
2023/10/13 02:29:05;;;;;;;2.13;1.73;;;19.00;64.40;18.00;96602.00;;;;5102792;28;20213;-81
2023/10/13 02:31:31;;;;;;;2.20;2.00;;;19.00;64.50;18.00;96598.00;;;;5107523;28;20195;-81
2023/10/13 02:34:00;;;;;;;2.20;1.97;;;18.90;64.40;18.00;96598.00;;;;5100865;28;20191;-82
2023/10/13 02:36:36;;;;;;;2.33;2.07;;;18.90;64.50;17.90;96597.00;;;;5108460;28;20694;-81
2023/10/13 02:39:07;;;;;;;2.30;1.70;;;18.90;64.50;17.90;96593.00;;;;5102249;28;20205;-81
2023/10/13 02:41:36;;;;;;;3.00;1.93;;;18.90;64.50;17.90;96594.00;;;;5108841;28;20197;-80
2023/10/13 02:44:08;;;;;;;1.60;1.50;;;18.80;64.50;17.80;96599.00;;;;5106965;28;20222;-81
2023/10/13 02:46:50;;;;;;;2.10;1.73;;;18.80;64.70;17.80;96593.00;;;;5106474;28;20214;-82
2023/10/13 02:49:19;;;;;;;1.83;1.73;;;18.80;64.70;17.80;96593.00;;;;5110279;28;21082;-81
2023/10/13 02:51:46;;;;;;;2.20;1.97;;;18.80;64.70;17.80;96597.00;;;;5106872;28;20710;-82
2023/10/13 02:54:18;;;;;;;3.53;1.73;;;18.70;64.70;17.70;96595.00;;;;5112155;28;20655;-81
2023/10/13 02:56:50;;;;;;;2.43;1.93;;;18.70;64.70;17.70;96585.00;;;;5110709;28;20218;-81
2023/10/13 02:59:19;;;;;;;2.77;1.73;;;18.70;64.80;17.70;96601.00;;;;5105371;28;20203;-82
2023/10/13 03:01:46;;;;;;;3.30;2.23;;;18.70;65.50;17.60;96587.00;;;;5110000;28;20571;-81
2023/10/13 03:04:13;;;;;;;1.90;1.70;;;18.60;64.70;17.60;96583.00;;;;5098948;28;20218;-82
2023/10/13 03:06:41;;;;;;;1.70;1.60;;;18.60;64.80;17.60;96589.00;;;;5108444;28;20297;-82
2023/10/13 03:09:22;;;;;;;3.13;2.20;;;18.60;64.90;17.50;96587.00;;;;5112123;28;20195;-82
2023/10/13 03:11:49;;;;;;;2.03;1.50;;;18.50;65.50;17.50;96593.00;;;;5111208;28;20205;-82
2023/10/13 03:14:26;;;;;;;3.00;2.07;;;18.50;64.80;17.50;96590.00;;;;5111591;28;20203;-81
2023/10/13 03:16:54;;;;;;;4.13;1.70;;;18.50;64.80;17.40;96589.00;;;;5111758;28;20283;-81
2023/10/13 03:19:32;;;;;;;2.20;2.00;;;18.40;64.80;17.40;96590.00;;;;5112109;28;20223;-81
2023/10/13 03:22:06;;;;;;;2.03;1.80;;;18.40;64.80;17.30;96575.00;;;;5104236;28;20274;-81
2023/10/13 03:24:34;;;;;;;3.50;1.70;;;18.40;65.50;17.30;96583.00;;;;5103870;28;20246;-81
2023/10/13 03:27:08;;;;;;;1.87;1.73;;;18.40;64.90;17.30;96587.00;;;;5108245;28;20679;-82
2023/10/13 03:29:42;;;;;;;2.93;2.30;;;18.30;64.80;17.20;96580.00;;;;5109582;28;20189;-81
2023/10/13 03:32:20;;;;;;;2.97;1.90;;;18.20;65.60;17.20;96582.00;;;;5102368;28;20203;-80
2023/10/13 03:34:54;;;;;;;2.17;1.97;;;18.20;64.90;17.10;96579.00;;;;5103431;28;20586;-81
2023/10/13 03:40:36;;;;;;;2.93;2.37;;;18.20;65.00;17.00;96581.00;;;;5162802;27;20540;-81
2023/10/13 03:43:06;;;;;;;3.80;2.17;;;18.10;65.00;17.00;96587.00;;;;5138203;27;20711;-82
2023/10/13 03:45:38;;;;;;;2.50;2.00;;;18.10;65.00;17.00;96575.00;;;;5133938;28;20210;-81
2023/10/13 03:48:09;;;;;;;2.90;2.17;;;18.00;65.10;17.00;96574.00;;;;5120922;28;20625;-81
2023/10/13 03:50:46;;;;;;;2.57;2.00;;;18.00;65.20;16.90;96576.00;;;;5120696;28;20342;-81
2023/10/13 03:53:13;;;;;;;2.57;1.87;;;18.00;65.20;16.90;96574.00;;;;5121575;28;20218;-81
2023/10/13 03:55:47;;;;;;;2.50;2.03;;;17.90;65.30;16.90;96577.00;;;;5121331;28;20222;-81
2023/10/13 03:58:16;;;;;;;2.77;2.30;;;17.90;65.40;16.90;96575.00;;;;5121558;28;20230;-81
2023/10/13 04:00:44;;;;;;;1.93;1.73;;;17.90;65.40;16.80;96572.00;;;;5121775;28;20202;-81
2023/10/13 04:03:15;;;;;;;2.90;1.90;;;17.90;66.20;16.80;96571.00;;;;5122228;28;20195;-81
2023/10/13 04:05:45;;;;;;;2.30;2.10;;;17.80;65.40;16.80;96579.00;;;;5121926;28;20245;-82
2023/10/13 04:16:51;;;;;;;2.20;2.00;;;17.70;65.60;16.60;96565.00;;;;5112367;28;20218;-81
2023/10/13 04:19:23;;;;;;;2.07;1.87;;;17.70;65.60;16.60;96567.00;;;;5110179;28;20229;-82
2023/10/13 04:21:57;;;;;;;3.83;1.97;;;17.70;65.60;16.60;96562.00;;;;5111842;28;20679;-82
2023/10/13 04:27:39;;;;;;;2.67;2.07;;;17.60;65.60;16.50;96558.00;;;;5103000;28;20195;-82
2023/10/13 04:30:38;;;;;;;2.60;2.00;;;17.60;65.60;16.50;96558.00;;;;5113114;28;20203;-81
2023/10/13 04:33:35;;;;;;;3.63;1.90;;;17.60;65.60;16.50;96548.00;;;;5115489;28;20216;-81
2023/10/13 04:36:13;;;;;;;1.97;1.87;;;17.60;65.60;16.40;96552.00;;;;5114968;28;20234;-81
2023/10/13 04:38:56;;;;;;;2.43;1.90;;;17.50;65.60;16.40;96556.00;;;;5117484;28;20229;-80
2023/10/13 04:41:25;;;;;;;3.77;2.03;;;17.50;65.60;16.40;96550.00;;;;5111699;28;20205;-82
2023/10/13 04:43:55;;;;;;;1.87;1.67;;;17.50;65.60;16.30;96547.00;;;;5109714;28;20194;-82
2023/10/13 04:46:40;;;;;;;2.23;2.03;;;17.40;65.60;16.30;96542.00;;;;5142670;27;20215;-82
2023/10/13 04:49:28;;;;;;;2.30;1.93;;;17.40;65.60;16.30;96546.00;;;;5107924;28;20202;-81
2023/10/13 04:51:59;;;;;;;2.07;1.87;;;17.40;65.60;16.30;96546.00;;;;5097307;28;20214;-82
2023/10/13 04:54:33;;;;;;;2.90;1.83;;;17.30;65.60;16.20;96542.00;;;;5097966;28;20257;-81
2023/10/13 04:57:23;;;;;;;3.57;2.00;;;17.30;65.80;16.20;96544.00;;;;5097308;28;20666;-82
2023/10/13 05:00:54;;;;;;;2.77;2.10;;;17.30;65.70;16.20;96542.00;;;;5098374;28;20223;-81
2023/10/13 05:44:37;;;;;;;2.63;2.30;;;17.00;66.00;15.80;96561.00;;;;5074411;28;20192;-80
2023/10/13 05:49:53;;;;;;;2.90;2.20;;;16.90;66.10;15.80;96560.00;;;;5083155;28;20191;-80
2023/10/13 05:52:19;;;;;;;2.70;2.00;;;16.90;66.10;15.80;96566.00;;;;5100915;28;20602;-80
2023/10/13 06:30:34;;;;;;;2.37;2.17;;;16.90;67.30;15.80;96578.00;;;;5095810;28;20296;-81
2023/10/13 06:33:05;;;;;;;2.70;2.50;;;16.90;67.40;15.90;96580.00;;;;5078379;28;20195;-81
2023/10/13 06:35:32;;;;;;;3.00;2.70;;;16.90;67.50;15.90;96576.00;;;;5094550;28;20665;-80
2023/10/13 06:38:01;;;;;;;3.27;2.33;;;16.90;67.70;15.90;96582.00;;;;5094414;28;20222;-79
2023/10/13 06:40:33;;;;;;;2.93;2.50;;;16.90;67.90;15.90;96584.00;;;;5095938;28;20219;-80
2023/10/13 06:43:12;;;;;;;3.80;2.30;;;17.00;68.00;16.00;96583.00;;;;5090890;28;20231;-80
2023/10/13 06:45:40;;;;;;;3.43;2.60;;;17.00;68.10;16.00;96588.00;;;;5085139;28;20286;-81
2023/10/13 06:48:12;;;;;;;4.63;2.90;;;17.00;68.10;16.00;96591.00;;;;5095549;28;20282;-81
2023/10/13 06:50:41;;;;;;;2.70;2.50;;;17.00;68.20;16.10;96590.00;;;;5095921;28;20199;-80
2023/10/13 06:53:12;;;;;;;4.47;2.70;;;17.10;68.40;16.10;96598.00;;;;5095877;28;20200;-80
2023/10/13 06:55:39;;;;;;;4.80;2.83;;;17.10;68.50;16.20;96594.00;;;;5097566;28;20700;-81
2023/10/13 06:58:13;;;;;;;3.63;2.47;;;17.10;68.50;16.20;96597.00;;;;5091447;28;20203;-81
2023/10/13 07:00:40;;;;;;;6.23;2.50;;;17.20;68.60;16.30;96601.00;;;;5093321;28;20306;-81
2023/10/13 07:03:08;;;;;;;3.87;2.27;;;17.20;68.60;16.30;96593.00;;;;5092852;28;20203;-81
2023/10/13 07:05:39;;;;;;;5.87;2.30;;;17.30;68.70;16.40;96593.00;;;;5092722;28;20238;-81
2023/10/13 07:08:09;;;;;;;6.23;2.87;;;17.30;68.80;16.50;96596.00;;;;5092489;28;20195;-81
2023/10/13 07:10:44;;;;;;;3.87;1.90;;;17.30;68.50;16.50;96585.00;;;;5092412;28;20282;-80
2023/10/13 07:13:13;;;;;;;2.67;1.70;;;17.40;68.30;16.60;96602.00;;;;5092351;28;20199;-80
2023/10/13 07:15:45;;;;;;;2.30;2.10;;;17.50;68.10;16.70;96597.00;;;;5094854;28;20781;-81
2023/10/13 07:18:15;;;;;;;4.83;2.40;;;17.50;67.30;16.80;96594.00;;;;5099152;28;20214;-81
2023/10/13 07:20:45;;;;;;;3.43;2.27;;;17.60;67.00;16.90;96593.00;;;;5098496;28;20219;-81
2023/10/13 07:23:19;;;;;;;4.97;1.87;;;17.70;66.70;17.00;96596.00;;;;5099684;28;20660;-81
2023/10/13 07:25:55;;;;;;;3.40;2.17;;;17.70;66.80;17.10;96599.00;;;;5094925;28;20215;-81
2023/10/13 07:28:23;;;;;;;2.93;2.00;;;17.80;66.00;17.20;96598.00;;;;5097037;28;20624;-81
2023/10/13 07:31:11;;;;;;;5.47;2.40;;;17.90;65.80;17.30;96595.00;;;;5096126;28;20199;-81
2023/10/13 07:33:37;;;;;;;4.50;2.20;;;18.00;65.40;17.40;96599.00;;;;5101117;28;20199;-81
2023/10/13 07:36:15;;;;;;;4.70;2.00;;;18.10;65.30;17.50;96595.00;;;;5098894;28;20668;-81
2023/10/13 07:38:48;;;;;;;5.43;1.90;;;18.20;65.20;17.60;96594.00;;;;5095742;28;20199;-81
2023/10/13 07:41:17;;;;;;;3.57;2.03;;;18.30;65.10;17.70;96602.00;;;;5096776;28;20187;-81
2023/10/13 07:43:46;;;;;;;6.37;2.43;;;18.40;64.80;17.80;96599.00;;;;5094990;28;20202;-81
2023/10/13 07:46:13;;;;;;;4.07;1.93;;;18.50;64.10;18.00;96603.00;;;;5096359;28;20226;-80
2023/10/13 07:48:45;;;;;;;3.33;1.90;;;18.60;64.50;18.10;96597.00;;;;5096616;28;20274;-80
2023/10/13 07:51:16;;;;;;;5.20;1.90;;;18.70;64.40;18.20;96594.00;;;;5096233;28;20648;-81
2023/10/13 07:53:48;;;;;;;3.07;2.00;;;18.80;64.40;18.30;96596.00;;;;5095738;28;20191;-81
2023/10/13 07:56:18;;;;;;;4.37;1.70;;;18.90;64.60;18.40;96595.00;;;;5093970;28;20246;-81
2023/10/13 07:58:52;;;;;;;2.90;1.60;;;19.00;64.50;18.50;96592.00;;;;5095256;28;20201;-81
2023/10/13 08:01:20;;;;;;;2.93;1.57;;;19.10;64.00;18.60;96601.00;;;;5099044;28;20196;-81
2023/10/13 08:03:56;;;;;;;3.53;1.67;;;19.30;64.00;18.80;96604.00;;;;5100539;28;20255;-81
2023/10/13 08:06:28;;;;;;;3.30;1.70;;;19.40;64.20;18.90;96593.00;;;;5101719;28;20224;-80
2023/10/13 08:09:07;;;;;;;2.43;1.70;;;19.50;64.30;19.00;96591.00;;;;5101904;28;20190;-81
2023/10/13 08:11:37;;;;;;;4.30;1.87;;;19.60;64.30;19.10;96600.00;;;;5100931;28;20192;-81
2023/10/13 08:14:16;;;;;;;3.70;1.67;;;19.70;64.40;19.30;96606.00;;;;5101264;28;20203;-81
2023/10/13 08:16:52;;;;;;;4.27;1.90;;;19.90;64.40;19.40;96595.00;;;;5101558;28;20635;-80
2023/10/13 08:19:26;;;;;;;4.37;1.70;;;20.00;64.40;19.50;96601.00;;;;5102201;28;20276;-80
2023/10/13 08:21:57;;;;;;;4.20;1.70;;;20.10;64.20;19.70;96595.00;;;;5101322;28;20195;-80
2023/10/13 08:24:29;;;;;;;2.37;1.73;;;20.30;64.00;19.80;96597.00;;;;5097319;28;20258;-80
2023/10/13 08:32:45;;;;;;;3.20;1.67;;;20.60;63.20;20.20;96596.00;;;;5104183;28;20202;-82
2023/10/13 08:35:33;;;;;;;5.57;2.10;;;20.70;63.00;20.40;96599.00;;;;5100108;28;20249;-82
2023/10/13 08:38:13;;;;;;;4.67;1.70;;;20.90;62.80;20.50;96599.00;;;;5101701;28;20199;-82
2023/10/13 08:43:45;;;;;;;3.50;2.13;;;21.20;62.90;20.80;96594.00;;;;5102604;28;20203;-81
2023/10/13 08:46:27;;;;;;;3.80;1.60;;;21.30;62.60;20.90;96588.00;;;;5131341;27;20244;-82
2023/10/13 08:52:05;;;;;;;3.40;1.83;;;21.60;62.50;21.20;96592.00;;;;5101654;28;20199;-80
2023/10/13 08:54:39;;;;;;;3.13;1.83;;;21.70;61.40;21.40;96589.00;;;;5103524;28;20223;-83
2023/10/13 08:57:19;;;;;;;3.37;1.70;;;21.90;61.80;21.60;96587.00;;;;5101398;28;20200;-82
2023/10/13 08:59:55;;;;;;;3.10;1.73;;;22.00;61.90;21.70;96587.00;;;;5106912;28;20219;-80
2023/10/13 09:02:30;;;;;;;3.20;1.70;;;22.20;62.00;21.80;96585.00;;;;5109261;28;20210;-79
2023/10/13 09:05:09;;;;;;;3.47;1.70;;;22.30;61.70;22.00;96585.00;;;;5102165;28;20218;-82
2023/10/13 09:07:47;;;;;;;5.07;2.20;;;22.40;60.60;22.20;96588.00;;;;5102966;28;20667;-81
2023/10/13 09:10:33;;;;;;;7.90;2.10;;;22.60;58.80;22.40;96580.00;;;;5106416;28;20209;-83
2023/10/13 09:13:01;;;;;;;4.33;1.77;;;22.80;59.30;22.60;96587.00;;;;5101600;28;20199;-79
2023/10/13 09:18:15;;;;;;;5.00;1.73;;;23.10;59.20;23.00;96580.00;;;;5101985;28;20199;-80
2023/10/13 09:20:43;;;;;;;2.50;1.67;;;23.30;59.30;23.20;96584.00;;;;5101230;28;20287;-80
2023/10/13 09:23:19;;;;;;;4.77;1.43;;;23.50;59.10;23.40;96579.00;;;;5100919;28;20628;-80
2023/10/13 09:25:53;;;;;;;3.50;1.67;;;23.60;59.10;23.50;96572.00;;;;5101674;28;20229;-81
2023/10/13 09:28:24;;;;;;;5.47;1.83;;;23.80;58.30;23.70;96580.00;;;;5105597;28;20220;-81
2023/10/13 09:30:56;;;;;;;4.57;1.93;;;24.00;58.30;23.90;96579.00;;;;5106054;28;20262;-83
2023/10/13 09:33:32;;;;;;;3.00;1.60;;;24.10;58.70;24.00;96575.00;;;;5104276;28;20203;-81
2023/10/13 09:35:59;;;;;;;4.27;1.83;;;24.30;57.80;24.20;96579.00;;;;5101161;28;20249;-81
2023/10/13 09:38:28;;;;;;;4.93;1.87;;;24.50;56.70;24.40;96572.00;;;;5098198;28;20210;-82
2023/10/13 09:40:57;;;;;;;5.57;1.50;;;24.60;56.40;24.50;96569.00;;;;5104244;28;20718;-80
2023/10/13 09:43:28;;;;;;;2.10;1.60;;;24.70;55.50;24.70;96574.00;;;;5103767;28;20251;-81
2023/10/13 09:46:02;;;;;;;4.50;1.70;;;24.90;55.20;24.80;96566.00;;;;5104398;28;20234;-81
2023/10/13 09:48:40;;;;;;;5.80;1.50;;;25.10;53.50;25.00;96566.00;;;;5097049;28;20205;-81
2023/10/13 09:51:13;;;;;;;3.43;1.40;;;25.20;54.10;25.20;96564.00;;;;5098052;28;20191;-83
2023/10/13 09:53:46;;;;;;;3.73;1.50;;;25.40;53.80;25.30;96562.00;;;;5102267;28;20205;-83
2023/10/13 09:56:27;;;;;;;5.37;1.63;;;25.50;53.90;25.50;96560.00;;;;5106631;28;20228;-82
2023/10/13 09:59:08;;;;;;;3.43;1.70;;;25.70;53.40;25.70;96565.00;;;;5111805;28;20199;-83
2023/10/13 10:01:50;;;;;;;2.53;1.40;;;25.80;51.60;25.80;96554.00;;;;5104028;28;20687;-82
2023/10/13 10:04:22;;;;;;;4.13;1.70;;;26.00;53.00;26.00;96552.00;;;;5100584;28;20195;-82
2023/10/13 10:06:53;;;;;;;2.93;1.90;;;26.20;53.20;26.10;96560.00;;;;5103246;28;20223;-82
2023/10/13 10:09:22;;;;;;;4.27;1.60;;;26.30;52.70;26.20;96558.00;;;;5098261;28;20574;-82
2023/10/13 10:12:19;;;;;;;3.70;1.37;;;26.40;52.00;26.40;96551.00;;;;5097832;28;20248;-82
2023/10/13 10:15:10;;;;;;;5.50;1.93;;;26.60;51.30;26.50;96555.00;;;;5099147;28;20217;-82
2023/10/13 10:17:43;;;;;;;4.07;1.60;;;26.70;49.70;26.70;96554.00;;;;5095758;28;20196;-81
2023/10/13 10:20:19;;;;;;;3.35;1.60;;;26.90;50.60;26.80;96556.00;;;;5098079;28;20282;-82
2023/10/13 10:22:59;;;;;;;2.67;1.50;;;27.00;50.10;27.00;96542.00;;;;5098681;28;20274;-82
2023/10/13 10:25:34;;;;;;;3.83;1.63;;;27.10;48.50;27.20;96548.00;;;;5097869;28;20218;-82
2023/10/13 10:28:06;;;;;;;2.80;1.70;;;27.30;49.20;27.40;96547.00;;;;5097835;28;20195;-82
2023/10/13 10:30:38;;;;;;;3.20;1.75;;;27.40;50.00;27.50;96540.00;;;;5097366;28;20279;-82
2023/10/13 10:33:12;;;;;;;2.33;1.63;;;27.60;48.40;27.70;96539.00;;;;5095363;28;20195;-82
2023/10/13 10:35:42;;;;;;;1.77;1.27;;;27.70;48.60;27.80;96543.00;;;;5093584;28;20783;-82
2023/10/13 10:38:23;;;;;;;8.88;1.45;;;27.90;47.80;27.90;96537.00;;;;5094202;28;20244;-82
2023/10/13 10:40:56;;;;;;;2.92;1.27;;;28.00;47.30;27.90;96533.00;;;;5093556;28;20237;-82
2023/10/13 10:43:29;;;;;;;1.52;1.40;;;28.10;47.40;28.00;96531.00;;;;5093714;28;20191;-82
2023/10/13 10:46:00;;;;;;;2.50;1.27;;;28.20;47.40;28.00;96526.00;;;;5091218;28;20215;-82
2023/10/13 10:48:34;;;;;;;5.30;1.63;;;28.20;47.80;28.10;96520.00;;;;5096050;28;20195;-82
2023/10/13 10:51:06;;;;;;;3.25;1.40;;;28.30;46.50;28.10;96520.00;;;;5091202;28;20739;-82
2023/10/13 10:53:43;;;;;;;3.88;1.83;;;28.30;46.20;28.20;96504.00;;;;5095295;28;20206;-82
2023/10/13 10:56:22;;;;;;;4.18;1.55;;;28.40;46.00;28.20;96510.00;;;;5097297;28;20274;-82
2023/10/13 10:58:54;;;;;;;4.25;1.40;;;28.40;45.90;28.20;96510.00;;;;5097869;28;20289;-82
2023/10/13 11:01:24;;;;;;;2.15;1.20;;;28.40;45.50;28.30;96504.00;;;;5095370;28;20219;-84
2023/10/13 11:03:57;;;;;;;3.58;1.02;;;28.50;45.50;28.30;96493.00;;;;5092159;28;20206;-84
2023/10/13 11:06:26;;;;;;;2.25;0.90;;;28.50;44.40;28.30;96486.00;;;;5087795;28;20230;-84
2023/10/13 11:09:08;;;;;;;2.30;1.13;;;28.50;44.70;28.40;96479.00;;;;5090985;28;20196;-83
2023/10/13 11:11:36;;;;;;;2.63;1.10;;;28.60;43.00;28.40;96484.00;;;;5074606;28;20210;-83
2023/10/13 11:14:17;;;;;;;2.42;1.20;;;28.60;43.40;28.50;96484.00;;;;5090942;28;20199;-84
2023/10/13 11:16:53;;;;;;;2.55;1.05;;;28.70;42.70;28.50;96472.00;;;;5091122;28;20226;-85
2023/10/13 11:19:27;;;;;;;2.03;0.98;;;28.70;41.60;28.60;96471.00;;;;5092228;28;20202;-84
2023/10/13 11:21:57;;;;;;;2.60;1.40;;;28.70;42.00;28.60;96461.00;;;;5091132;28;20255;-83
2023/10/13 11:24:24;;;;;;;3.67;1.40;;;28.80;41.20;28.70;96459.00;;;;5090475;28;20587;-83
2023/10/13 11:26:52;;;;;;;2.25;1.10;;;28.80;40.80;28.70;96453.00;;;;5090208;28;20234;-82
2023/10/13 11:29:20;;;;;;;2.38;1.08;;;28.90;40.40;28.70;96447.00;;;;5089422;28;20584;-85
2023/10/13 11:31:58;;;;;;;2.78;1.13;;;28.90;41.10;28.80;96453.00;;;;5089542;28;20581;-83
2023/10/13 11:34:30;;;;;;;2.55;1.27;;;28.90;40.70;28.80;96450.00;;;;5089777;28;20298;-84
2023/10/13 11:37:28;;;;;;;5.43;1.25;;;29.00;40.90;28.80;96438.00;;;;5086814;28;20209;-83
2023/10/13 11:39:51;;;;;;;1.65;1.25;;;29.00;40.70;28.90;96436.00;;;;5089644;28;20313;-84
2023/10/13 11:42:19;;;;;;;8.45;1.48;;;29.00;40.30;28.90;96435.00;;;;5090419;28;20222;-84
2023/10/13 11:44:46;;;;;;;3.28;1.55;;;29.10;39.70;28.90;96434.00;;;;5056859;28;20195;-84
2023/10/13 11:49:59;;;;;;;2.10;1.20;;;29.20;40.00;28.90;96427.00;;;;5091483;28;20203;-83
2023/10/13 11:52:30;;;;;;;3.47;1.17;;;29.20;39.80;28.90;96429.00;;;;5087704;28;20274;-84
2023/10/13 11:54:57;;;;;;;1.60;1.00;;;29.10;39.40;28.90;96424.00;;;;5087851;28;20361;-84
2023/10/13 11:57:24;;;;;;;7.05;1.50;;;29.20;39.90;29.00;96422.00;;;;5091186;28;20204;-84
2023/10/13 11:59:56;;;;;;;3.80;1.40;;;29.20;39.40;29.00;96421.00;;;;5074084;28;20209;-83
2023/10/13 12:05:17;;;;;;;2.40;1.15;;;29.20;38.90;29.10;96415.00;;;;5092646;28;20325;-83
2023/10/13 12:07:48;;;;;;;4.07;1.55;;;29.20;39.10;29.10;96409.00;;;;5094565;28;20229;-84
2023/10/13 12:10:20;;;;;;;3.85;1.63;;;29.20;38.60;29.10;96399.00;;;;5096353;28;20311;-82
2023/10/13 12:12:53;;;;;;;5.40;1.40;;;29.30;38.20;29.20;96409.00;;;;5092126;28;20205;-83
2023/10/13 12:15:34;;;;;;;3.10;1.25;;;29.30;38.60;29.20;96399.00;;;;5095720;28;20231;-84
2023/10/13 12:18:03;;;;;;;3.17;1.17;;;29.30;38.40;29.20;96409.00;;;;5093186;28;20187;-84
2023/10/13 12:20:35;;;;;;;2.83;1.40;;;29.40;38.40;29.30;96397.00;;;;5095282;28;20219;-83
2023/10/13 12:23:15;;;;;;;2.70;1.40;;;29.40;38.10;29.30;96394.00;;;;5120264;27;20603;-85
2023/10/13 12:25:54;;;;;;;2.03;1.10;;;29.40;38.50;29.40;96391.00;;;;5093312;28;20222;-83
2023/10/13 12:28:26;;;;;;;2.22;1.25;;;29.50;38.50;29.40;96390.00;;;;5094584;28;20245;-84
2023/10/13 12:30:57;;;;;;;2.42;1.45;;;29.50;38.20;29.40;96391.00;;;;5095766;28;20195;-84
2023/10/13 12:33:27;;;;;;;1.27;0.80;;;29.60;38.20;29.40;96385.00;;;;5092012;28;20210;-84
2023/10/13 12:36:14;;;;;;;2.60;1.17;;;29.60;38.20;29.50;96378.00;;;;5093585;28;20743;-85
2023/10/13 12:48:55;;;;;;;3.05;1.23;;;29.60;37.30;29.50;96382.00;;;;5095254;28;20544;-85
2023/10/13 12:50:07;;;;;;;2.58;1.15;;;29.70;37.30;29.60;96370.00;;;;5095179;28;20687;-84
2023/10/13 12:52:34;;;;;;;1.88;1.20;;;29.70;37.20;29.60;96365.00;;;;5121622;27;20209;-84
2023/10/13 12:55:13;;;;;;;3.33;1.65;;;29.70;37.40;29.60;96360.00;;;;5094755;28;20211;-85
2023/10/13 12:57:46;;;;;;;2.13;1.27;;;29.80;37.40;29.70;96353.00;;;;5090619;28;20675;-85
2023/10/13 13:00:32;;;;;;;3.08;1.17;;;29.80;37.40;29.70;96351.00;;;;5125540;27;20654;-85
2023/10/13 13:03:08;;;;;;;3.58;1.40;;;29.80;37.30;29.70;96351.00;;;;5091368;28;20218;-85
2023/10/13 13:05:44;;;;;;;2.17;0.98;;;29.80;37.30;29.70;96340.00;;;;5091829;28;20218;-85
2023/10/13 13:08:19;;;;;;;2.30;1.42;;;29.80;36.60;29.70;96349.00;;;;5094252;28;20628;-84
2023/10/13 13:10:48;;;;;;;3.35;1.38;;;29.90;36.80;29.70;96343.00;;;;5093508;28;20199;-85
2023/10/13 13:13:16;;;;;;;4.20;1.58;;;29.90;37.20;29.80;96335.00;;;;5094374;28;20556;-85
2023/10/13 13:15:43;;;;;;;3.08;1.30;;;29.90;37.90;29.80;96332.00;;;;5093400;28;20211;-85
2023/10/13 13:18:11;;;;;;;3.80;1.23;;;29.90;36.80;29.80;96331.00;;;;5093373;28;20197;-84
2023/10/13 13:20:52;;;;;;;2.78;1.23;;;29.90;36.60;29.80;96334.00;;;;5092379;28;20617;-84
2023/10/13 13:23:19;;;;;;;2.10;1.20;;;29.90;36.60;29.80;96328.00;;;;5092089;28;20243;-85